Time;durP1;ratioP1;P1;durP2;ratioP2;P2;SDS_P1;SDS_P2;PMS_P1;PMS_P2;Temp;Humidity;BMP_temperature;BMP_pressure;BME280_temperature;BME280_humidity;BME280_pressure;Samples;Min_cycle;Max_cycle;Signal;HPM_P1;HPM_P2
2022/03/29 00:02:00;;;;;;;42.67;25.55;;;;;;;;;;5083430;28;20051;-70
2022/03/29 00:04:27;;;;;;;47.53;27.45;;;;;;;;;;5083281;28;20044;-69
2022/03/29 00:06:53;;;;;;;39.10;23.60;;;;;;;;;;5068859;28;20739;-68
2022/03/29 00:09:20;;;;;;;42.13;25.05;;;;;;;;;;5086363;28;20178;-69
2022/03/29 00:11:46;;;;;;;;;;;;;;;;;;5087765;28;20048;-69
2022/03/29 00:14:12;;;;;;;39.97;24.65;;;;;;;;;;5086406;28;19924;-69
2022/03/29 00:16:39;;;;;;;44.42;26.20;;;;;;;;;;5085951;28;20060;-70
2022/03/29 00:19:05;;;;;;;43.97;27.92;;;;;;;;;;5089380;28;20487;-69
2022/03/29 00:21:40;;;;;;;42.88;26.38;;;;;;;;;;5089824;28;20047;-70
2022/03/29 00:24:06;;;;;;;39.20;24.80;;;;;;;;;;5091856;28;20460;-70
2022/03/29 00:26:32;;;;;;;41.92;24.42;;;;;;;;;;5085921;28;20044;-70
2022/03/29 00:28:59;;;;;;;40.60;25.27;;;;;;;;;;5070733;28;20203;-70
2022/03/29 00:31:25;;;;;;;43.20;26.33;;;;;;;;;;5071607;28;20048;-70
2022/03/29 00:33:51;;;;;;;44.83;25.67;;;;;;;;;;5070715;28;20116;-70
2022/03/29 00:36:19;;;;;;;42.30;25.13;;;;;;;;;;5073540;28;20056;-69
2022/03/29 00:38:49;;;;;;;44.92;27.52;;;;;;;;;;5072980;28;20053;-70
2022/03/29 00:41:15;;;;;;;45.25;26.63;;;;;;;;;;5090360;28;20048;-69
2022/03/29 00:43:41;;;;;;;44.20;25.92;;;;;;;;;;5090762;28;20044;-71
2022/03/29 00:46:07;;;;;;;44.90;26.73;;;;;;;;;;5077204;28;20076;-72
2022/03/29 00:48:33;;;;;;;;;;;;;;;;;;5091110;28;20055;-70
2022/03/29 00:50:59;;;;;;;45.80;27.42;;;;;;;;;;5090513;28;20068;-70
2022/03/29 00:53:26;;;;;;;47.13;27.17;;;;;;;;;;5088821;28;20059;-70
2022/03/29 00:55:54;;;;;;;50.35;28.05;;;;;;;;;;5087594;28;20124;-70
2022/03/29 00:58:20;;;;;;;48.70;28.75;;;;;;;;;;5088730;28;20043;-70
2022/03/29 01:00:47;;;;;;;47.75;26.60;;;;;;;;;;5088962;28;20059;-71
2022/03/29 01:03:15;;;;;;;46.47;27.42;;;;;;;;;;5091189;28;20083;-70
2022/03/29 01:05:41;;;;;;;47.55;26.50;;;;;;;;;;5084592;28;20102;-71
2022/03/29 01:08:10;;;;;;;46.85;27.45;;;;;;;;;;5070864;28;20175;-69
2022/03/29 01:10:37;;;;;;;47.08;27.40;;;;;;;;;;5069595;28;20056;-70
2022/03/29 01:13:03;;;;;;;49.58;26.73;;;;;;;;;;5072761;28;20048;-69
2022/03/29 01:15:31;;;;;;;46.95;27.45;;;;;;;;;;5072527;28;20048;-69
2022/03/29 01:17:57;;;;;;;53.22;28.40;;;;;;;;;;5071395;28;20123;-70
2022/03/29 01:20:25;;;;;;;47.10;27.67;;;;;;;;;;5070662;28;20123;-69
2022/03/29 01:22:52;;;;;;;47.80;27.73;;;;;;;;;;5089157;28;20441;-69
2022/03/29 01:25:18;;;;;;;48.67;26.58;;;;;;;;;;5070724;28;20040;-69
2022/03/29 01:27:45;;;;;;;49.20;27.50;;;;;;;;;;5070696;28;20084;-70
2022/03/29 01:30:11;;;;;;;46.83;26.80;;;;;;;;;;5070109;28;20048;-70
2022/03/29 01:32:37;;;;;;;;;;;;;;;;;;5071280;28;20092;-70
2022/03/29 01:35:04;;;;;;;45.58;26.45;;;;;;;;;;5069492;28;19993;-70
2022/03/29 01:37:34;;;;;;;44.85;25.70;;;;;;;;;;5071204;28;20048;-70
2022/03/29 01:40:04;;;;;;;51.15;26.88;;;;;;;;;;5069511;28;20067;-70
2022/03/29 01:42:30;;;;;;;44.90;26.00;;;;;;;;;;5073436;28;20159;-70
2022/03/29 01:44:56;;;;;;;47.92;26.30;;;;;;;;;;5089959;28;20131;-70
2022/03/29 01:47:22;;;;;;;44.42;26.23;;;;;;;;;;5088855;28;20082;-69
2022/03/29 01:49:49;;;;;;;46.67;26.38;;;;;;;;;;5087649;28;20040;-70
2022/03/29 01:52:15;;;;;;;;;;;;;;;;;;5090010;28;20060;-69
2022/03/29 01:54:41;;;;;;;46.10;26.10;;;;;;;;;;5069933;28;19920;-70
2022/03/29 01:57:07;;;;;;;50.65;27.92;;;;;;;;;;5069574;28;20100;-70
2022/03/29 02:00:30;;;;;;;49.88;27.33;;;;;;;;;;5080916;28;20095;-70
2022/03/29 02:02:19;;;;;;;43.58;24.67;;;;;;;;;;5069780;28;20427;-69
2022/03/29 02:04:45;;;;;;;45.97;25.20;;;;;;;;;;5070141;28;20052;-68
2022/03/29 02:07:12;;;;;;;45.00;25.60;;;;;;;;;;5069480;28;20147;-68
2022/03/29 02:09:38;;;;;;;;;;;;;;;;;;5080018;28;20112;-69
2022/03/29 02:12:05;;;;;;;51.30;26.73;;;;;;;;;;5077274;28;19924;-69
2022/03/29 02:14:34;;;;;;;47.30;26.38;;;;;;;;;;5068186;28;20059;-68
2022/03/29 02:17:00;;;;;;;48.67;26.05;;;;;;;;;;5072761;28;20047;-69
2022/03/29 02:19:26;;;;;;;;;;;;;;;;;;5075379;28;20380;-69
2022/03/29 02:21:52;;;;;;;46.47;27.50;;;;;;;;;;5087652;28;19943;-70
2022/03/29 02:24:18;;;;;;;45.83;26.67;;;;;;;;;;5073559;28;20052;-70
2022/03/29 02:26:45;;;;;;;46.30;26.15;;;;;;;;;;5069576;28;20138;-69
2022/03/29 02:29:11;;;;;;;50.42;27.92;;;;;;;;;;5071857;28;20124;-70
2022/03/29 02:31:37;;;;;;;44.60;26.48;;;;;;;;;;5081526;28;20051;-69
2022/03/29 02:34:04;;;;;;;47.25;24.80;;;;;;;;;;5089038;28;20451;-69
2022/03/29 02:36:30;;;;;;;46.97;27.10;;;;;;;;;;5089247;28;20411;-70
2022/03/29 02:38:56;;;;;;;49.45;27.02;;;;;;;;;;5087608;28;20094;-70
2022/03/29 02:41:22;;;;;;;45.58;25.95;;;;;;;;;;5075140;28;20179;-70
2022/03/29 02:43:48;;;;;;;45.88;25.95;;;;;;;;;;5069986;28;20387;-70
2022/03/29 02:46:14;;;;;;;49.97;28.30;;;;;;;;;;5078674;28;20589;-69
2022/03/29 02:48:40;;;;;;;45.60;25.83;;;;;;;;;;5089589;28;20396;-69
2022/03/29 02:51:06;;;;;;;52.72;27.55;;;;;;;;;;5080504;28;20048;-69
2022/03/29 02:53:33;;;;;;;50.20;27.40;;;;;;;;;;5069840;28;20068;-67
2022/03/29 02:56:02;;;;;;;48.38;26.73;;;;;;;;;;5083090;28;20202;-69
2022/03/29 02:58:28;;;;;;;46.83;28.25;;;;;;;;;;5068776;28;20123;-69
2022/03/29 03:00:54;;;;;;;54.28;26.65;;;;;;;;;;5073173;28;20067;-69
2022/03/29 03:03:20;;;;;;;46.03;25.83;;;;;;;;;;5086365;28;20111;-68
2022/03/29 03:05:46;;;;;;;45.80;27.58;;;;;;;;;;5088618;28;20473;-69
2022/03/29 03:08:13;;;;;;;44.25;26.80;;;;;;;;;;5088381;28;20408;-69
2022/03/29 03:10:39;;;;;;;51.92;29.02;;;;;;;;;;5088912;28;20058;-69
2022/03/29 03:13:05;;;;;;;44.13;26.42;;;;;;;;;;5069730;28;20145;-69
2022/03/29 03:15:31;;;;;;;51.55;28.02;;;;;;;;;;5082571;28;20055;-69
2022/03/29 03:17:58;;;;;;;48.05;27.73;;;;;;;;;;5088240;28;20051;-69
2022/03/29 03:20:24;;;;;;;;;;;;;;;;;;5089285;28;20067;-69
2022/03/29 03:22:51;;;;;;;47.50;26.73;;;;;;;;;;5087312;28;20020;-69
2022/03/29 03:25:17;;;;;;;51.75;27.88;;;;;;;;;;5086789;28;20051;-69
2022/03/29 03:27:43;;;;;;;49.25;27.80;;;;;;;;;;5088594;28;20402;-69
2022/03/29 03:30:11;;;;;;;51.42;27.95;;;;;;;;;;5087722;28;20189;-69
2022/03/29 03:32:38;;;;;;;54.80;27.67;;;;;;;;;;5082849;28;20379;-69
2022/03/29 03:35:04;;;;;;;54.50;29.05;;;;;;;;;;5087043;28;20056;-70
2022/03/29 03:37:30;;;;;;;;;;;;;;;;;;5078443;28;20056;-69
2022/03/29 03:39:56;;;;;;;51.20;28.40;;;;;;;;;;5080321;28;20117;-69
2022/03/29 03:42:23;;;;;;;55.25;28.70;;;;;;;;;;5087964;28;20658;-69
2022/03/29 03:44:49;;;;;;;52.65;28.48;;;;;;;;;;5068453;28;20086;-69
2022/03/29 03:47:15;;;;;;;55.50;28.42;;;;;;;;;;5087949;28;20061;-69
2022/03/29 03:49:41;;;;;;;54.00;29.13;;;;;;;;;;5072377;28;20104;-69
2022/03/29 03:52:07;;;;;;;56.85;28.38;;;;;;;;;;5085254;28;20363;-70
2022/03/29 03:54:34;;;;;;;;;;;;;;;;;;5082990;28;20071;-69
2022/03/29 03:57:00;;;;;;;52.20;29.23;;;;;;;;;;5072377;28;19935;-69
2022/03/29 03:59:26;;;;;;;51.17;27.95;;;;;;;;;;5080850;28;20399;-69
2022/03/29 04:01:52;;;;;;;60.63;30.27;;;;;;;;;;5077475;28;20196;-69
2022/03/29 04:04:18;;;;;;;55.03;29.55;;;;;;;;;;5089614;28;20444;-70
2022/03/29 04:06:44;;;;;;;;;;;;;;;;;;5072729;28;20037;-70
2022/03/29 04:09:10;;;;;;;51.03;30.73;;;;;;;;;;5072346;28;19987;-70
2022/03/29 04:11:36;;;;;;;58.92;32.33;;;;;;;;;;5071664;28;20354;-70
2022/03/29 04:14:03;;;;;;;54.72;30.25;;;;;;;;;;5087285;28;20064;-69
2022/03/29 04:16:29;;;;;;;52.83;29.35;;;;;;;;;;5097554;28;20449;-69
2022/03/29 04:18:55;;;;;;;55.65;29.30;;;;;;;;;;5090951;28;20093;-70
2022/03/29 04:21:21;;;;;;;50.17;29.98;;;;;;;;;;5090186;28;20040;-69
2022/03/29 04:23:47;;;;;;;57.05;31.73;;;;;;;;;;5090423;28;20055;-69
2022/03/29 04:26:13;;;;;;;59.40;31.42;;;;;;;;;;5081415;28;20036;-69
2022/03/29 04:28:39;;;;;;;55.03;32.95;;;;;;;;;;5081607;28;20063;-69
2022/03/29 04:31:05;;;;;;;65.80;34.17;;;;;;;;;;5090435;28;20197;-69
2022/03/29 04:33:31;;;;;;;55.45;32.35;;;;;;;;;;5089273;28;20075;-69
2022/03/29 04:35:57;;;;;;;59.05;31.90;;;;;;;;;;5090164;28;20051;-69
2022/03/29 04:38:25;;;;;;;60.58;33.47;;;;;;;;;;5079343;28;20144;-69
2022/03/29 04:40:51;;;;;;;53.33;31.65;;;;;;;;;;5095621;28;20499;-69
2022/03/29 04:43:17;;;;;;;57.88;33.13;;;;;;;;;;5103265;28;20124;-69
2022/03/29 04:45:43;;;;;;;58.25;31.85;;;;;;;;;;5071506;28;20318;-69
2022/03/29 04:48:11;;;;;;;58.17;33.42;;;;;;;;;;5071152;28;20488;-68
2022/03/29 04:50:38;;;;;;;59.85;32.22;;;;;;;;;;5074362;28;20121;-68
2022/03/29 04:53:04;;;;;;;62.50;31.80;;;;;;;;;;5071034;28;20512;-69
2022/03/29 04:55:30;;;;;;;57.67;32.38;;;;;;;;;;5069847;28;20060;-69
2022/03/29 04:57:57;;;;;;;62.80;33.28;;;;;;;;;;5069686;28;20102;-69
2022/03/29 05:00:32;;;;;;;60.75;33.33;;;;;;;;;;5081676;28;20626;-69
2022/03/29 05:02:58;;;;;;;58.88;31.23;;;;;;;;;;5091524;28;20514;-69
2022/03/29 05:05:25;;;;;;;56.80;32.97;;;;;;;;;;5090357;28;20163;-70
2022/03/29 05:07:51;;;;;;;71.68;34.67;;;;;;;;;;5091029;28;20071;-70
2022/03/29 05:10:17;;;;;;;63.67;34.70;;;;;;;;;;5083822;28;20040;-71
2022/03/29 05:12:48;;;;;;;64.22;32.35;;;;;;;;;;5070948;28;20078;-68
2022/03/29 05:15:17;;;;;;;55.53;30.92;;;;;;;;;;5086265;28;20090;-69
2022/03/29 05:17:43;;;;;;;57.65;31.30;;;;;;;;;;5069339;28;20136;-69
2022/03/29 05:20:10;;;;;;;58.47;33.28;;;;;;;;;;5086748;28;20052;-69
2022/03/29 05:22:43;;;;;;;55.00;32.80;;;;;;;;;;5075223;28;20114;-68
2022/03/29 05:25:09;;;;;;;60.17;34.15;;;;;;;;;;5070823;28;20040;-68
2022/03/29 05:27:36;;;;;;;59.70;32.40;;;;;;;;;;5069748;28;20067;-66
2022/03/29 05:30:02;;;;;;;63.75;34.08;;;;;;;;;;5068847;28;20056;-69
2022/03/29 05:32:29;;;;;;;63.20;32.78;;;;;;;;;;5087870;28;20052;-69
2022/03/29 05:34:56;;;;;;;60.75;33.47;;;;;;;;;;5090001;28;20124;-68
2022/03/29 05:37:22;;;;;;;56.88;34.45;;;;;;;;;;5087194;28;20092;-66
2022/03/29 05:39:48;;;;;;;;;;;;;;;;;;5081245;28;20055;-66
2022/03/29 05:42:14;;;;;;;66.90;33.80;;;;;;;;;;5076297;28;19985;-66
2022/03/29 05:44:41;;;;;;;61.95;35.70;;;;;;;;;;5068385;28;20098;-66
2022/03/29 05:49:52;;;;;;;67.68;34.25;;;;;;;;;;5068986;28;20052;-66
2022/03/29 05:52:21;;;;;;;59.53;32.65;;;;;;;;;;5070932;28;20044;-69
2022/03/29 05:54:47;;;;;;;58.25;34.17;;;;;;;;;;5067317;28;20041;-66
2022/03/29 05:57:13;;;;;;;;;;;;;;;;;;5082951;28;20448;-68
2022/03/29 05:59:39;;;;;;;59.63;33.03;;;;;;;;;;5087402;28;20002;-66
2022/03/29 06:02:06;;;;;;;64.88;34.42;;;;;;;;;;5086946;28;20082;-66
2022/03/29 06:04:32;;;;;;;57.03;34.13;;;;;;;;;;5080918;28;20080;-67
2022/03/29 06:07:02;;;;;;;62.65;34.03;;;;;;;;;;5081648;28;20150;-67
2022/03/29 06:09:28;;;;;;;57.05;33.80;;;;;;;;;;5081946;28;20117;-68
2022/03/29 06:11:54;;;;;;;62.05;33.95;;;;;;;;;;5079712;28;20066;-66
2022/03/29 06:14:20;;;;;;;56.33;32.00;;;;;;;;;;5081364;28;20498;-69
2022/03/29 06:16:49;;;;;;;59.42;32.03;;;;;;;;;;5070083;28;20047;-66
2022/03/29 06:19:16;;;;;;;59.22;32.25;;;;;;;;;;5049433;28;20128;-67
2022/03/29 06:21:43;;;;;;;65.25;33.33;;;;;;;;;;5073526;28;20091;-67
2022/03/29 06:24:10;;;;;;;60.75;34.22;;;;;;;;;;5067397;28;20048;-67
2022/03/29 06:26:37;;;;;;;65.20;32.80;;;;;;;;;;5079323;28;20108;-67
2022/03/29 06:29:04;;;;;;;64.13;32.70;;;;;;;;;;5077126;28;20518;-67
2022/03/29 06:31:31;;;;;;;62.45;32.63;;;;;;;;;;5084916;28;20080;-67
2022/03/29 06:33:57;;;;;;;57.17;30.77;;;;;;;;;;5085422;28;20040;-67
2022/03/29 06:36:26;;;;;;;61.35;33.15;;;;;;;;;;5085868;28;20103;-70
2022/03/29 06:39:03;;;;;;;59.47;32.58;;;;;;;;;;5083694;28;20142;-67
2022/03/29 06:41:30;;;;;;;61.28;31.35;;;;;;;;;;5084202;28;20084;-67
2022/03/29 06:43:56;;;;;;;54.92;30.88;;;;;;;;;;5086829;28;20457;-67
2022/03/29 06:46:26;;;;;;;65.05;35.95;;;;;;;;;;5080200;28;20163;-69
2022/03/29 06:48:54;;;;;;;63.13;33.15;;;;;;;;;;5085068;28;20062;-67
2022/03/29 06:51:20;;;;;;;67.10;33.83;;;;;;;;;;5069015;28;20048;-68
2022/03/29 06:53:46;;;;;;;;;;;;;;;;;;5082383;28;20096;-67
2022/03/29 06:56:15;;;;;;;58.38;33.10;;;;;;;;;;5084916;28;20015;-68
2022/03/29 06:58:41;;;;;;;65.75;32.75;;;;;;;;;;5080198;28;20052;-68
2022/03/29 07:01:07;;;;;;;62.45;32.00;;;;;;;;;;5085168;28;20131;-68
2022/03/29 07:03:35;;;;;;;65.43;33.55;;;;;;;;;;5079679;28;20169;-67
2022/03/29 07:06:03;;;;;;;59.90;31.50;;;;;;;;;;5077226;28;20119;-67
2022/03/29 07:08:30;;;;;;;61.25;34.47;;;;;;;;;;5087002;28;20122;-69
2022/03/29 07:13:42;;;;;;;60.90;31.13;;;;;;;;;;5066998;28;20487;-67
2022/03/29 07:16:09;;;;;;;56.13;31.15;;;;;;;;;;5072048;28;20408;-67
2022/03/29 07:18:35;;;;;;;53.70;32.45;;;;;;;;;;5087072;28;20082;-66
2022/03/29 07:21:01;;;;;;;58.85;32.13;;;;;;;;;;5085951;28;20429;-67
2022/03/29 07:23:29;;;;;;;61.13;33.70;;;;;;;;;;5086196;28;20459;-67
2022/03/29 07:25:56;;;;;;;60.80;31.98;;;;;;;;;;5084532;28;20047;-67
2022/03/29 07:28:23;;;;;;;57.72;31.02;;;;;;;;;;5084221;28;20440;-67
2022/03/29 07:30:49;;;;;;;60.75;32.03;;;;;;;;;;5081503;28;20048;-67
2022/03/29 07:33:17;;;;;;;63.85;31.70;;;;;;;;;;5083105;28;20115;-66
2022/03/29 07:35:44;;;;;;;65.25;31.58;;;;;;;;;;5077896;28;20087;-67
2022/03/29 07:38:11;;;;;;;66.15;31.25;;;;;;;;;;5072858;28;20045;-66
2022/03/29 07:40:41;;;;;;;59.40;32.08;;;;;;;;;;5065764;28;20110;-66
2022/03/29 07:43:18;;;;;;;60.92;29.92;;;;;;;;;;5079690;28;20127;-66
2022/03/29 07:45:44;;;;;;;54.20;30.38;;;;;;;;;;5063799;28;20079;-66
2022/03/29 07:48:10;;;;;;;61.38;30.02;;;;;;;;;;5083288;28;20055;-66
2022/03/29 07:50:36;;;;;;;55.38;29.60;;;;;;;;;;5086015;28;20090;-66
2022/03/29 07:53:05;;;;;;;56.53;31.33;;;;;;;;;;5086404;28;20123;-66
2022/03/29 07:55:31;;;;;;;61.83;29.20;;;;;;;;;;5086035;28;20472;-66
2022/03/29 07:57:57;;;;;;;54.92;31.80;;;;;;;;;;5081825;28;20036;-65
2022/03/29 08:00:33;;;;;;;60.95;32.25;;;;;;;;;;5084614;28;20119;-66
2022/03/29 08:03:06;;;;;;;52.47;27.55;;;;;;;;;;5077644;28;20036;-65
2022/03/29 08:05:34;;;;;;;49.30;27.58;;;;;;;;;;5069369;28;20070;-66
2022/03/29 08:08:04;;;;;;;48.85;26.30;;;;;;;;;;5081891;28;20052;-66
2022/03/29 08:10:31;;;;;;;48.97;27.00;;;;;;;;;;5074464;28;20476;-67
2022/03/29 08:12:58;;;;;;;55.63;28.50;;;;;;;;;;5081247;28;20108;-66
2022/03/29 08:15:28;;;;;;;54.72;28.33;;;;;;;;;;5086882;28;20048;-66
2022/03/29 08:17:55;;;;;;;50.22;26.75;;;;;;;;;;5069517;28;20041;-66
2022/03/29 08:20:29;;;;;;;52.13;27.40;;;;;;;;;;5066913;28;20044;-67
2022/03/29 08:23:00;;;;;;;53.70;27.33;;;;;;;;;;5083720;28;20455;-66
2022/03/29 08:25:29;;;;;;;48.80;27.13;;;;;;;;;;5085653;28;20112;-67
2022/03/29 08:27:56;;;;;;;58.38;28.10;;;;;;;;;;5080146;28;20044;-66
2022/03/29 08:30:23;;;;;;;57.03;25.15;;;;;;;;;;5067425;28;20114;-67
2022/03/29 08:32:49;;;;;;;54.92;27.45;;;;;;;;;;5080181;28;20471;-67
2022/03/29 08:35:19;;;;;;;50.78;25.70;;;;;;;;;;5084550;28;20055;-67
2022/03/29 08:37:47;;;;;;;48.60;24.48;;;;;;;;;;5073552;28;20132;-67
2022/03/29 08:40:14;;;;;;;46.58;22.00;;;;;;;;;;5087025;28;20514;-64
2022/03/29 08:42:42;;;;;;;44.30;21.33;;;;;;;;;;5090266;28;20070;-66
2022/03/29 08:45:09;;;;;;;46.25;21.38;;;;;;;;;;5087493;28;20071;-64
2022/03/29 08:47:43;;;;;;;37.28;18.33;;;;;;;;;;5081820;28;20111;-70
2022/03/29 08:50:13;;;;;;;40.45;16.50;;;;;;;;;;5070877;28;20261;-65
2022/03/29 08:52:41;;;;;;;42.03;17.50;;;;;;;;;;5085615;28;20393;-68
2022/03/29 08:55:08;;;;;;;47.28;16.63;;;;;;;;;;5070739;28;20060;-66
2022/03/29 08:57:35;;;;;;;38.35;17.40;;;;;;;;;;5074690;28;20332;-65
2022/03/29 09:00:01;;;;;;;33.78;16.05;;;;;;;;;;5072223;28;20120;-66
2022/03/29 09:02:33;;;;;;;45.88;16.77;;;;;;;;;;5090470;28;20048;-65
2022/03/29 09:05:29;;;;;;;40.10;16.67;;;;;;;;;;5088511;28;20050;-65
2022/03/29 09:08:01;;;;;;;38.85;17.15;;;;;;;;;;5085060;28;20495;-66
2022/03/29 09:10:44;;;;;;;44.83;15.93;;;;;;;;;;5070466;28;20052;-65
2022/03/29 09:13:21;;;;;;;40.28;15.18;;;;;;;;;;5070724;28;20048;-65
2022/03/29 09:15:48;;;;;;;38.38;15.80;;;;;;;;;;5069779;28;20045;-66
2022/03/29 09:18:14;;;;;;;35.83;14.90;;;;;;;;;;5072496;28;20048;-66
2022/03/29 09:20:41;;;;;;;36.38;14.63;;;;;;;;;;5088605;28;20079;-65
2022/03/29 09:23:07;;;;;;;;;;;;;;;;;;5090209;28;20044;-67
2022/03/29 09:25:39;;;;;;;37.63;14.93;;;;;;;;;;5088558;28;19939;-66
2022/03/29 09:28:10;;;;;;;40.25;14.80;;;;;;;;;;5087409;28;20083;-65
2022/03/29 09:30:40;;;;;;;40.05;14.60;;;;;;;;;;5074684;28;20068;-65
2022/03/29 09:33:07;;;;;;;37.75;13.80;;;;;;;;;;5069198;28;20040;-66
2022/03/29 09:35:35;;;;;;;35.33;14.63;;;;;;;;;;5082371;28;20119;-65
2022/03/29 09:38:01;;;;;;;34.72;14.10;;;;;;;;;;5080672;28;20055;-66
2022/03/29 09:40:34;;;;;;;36.38;14.15;;;;;;;;;;5086616;28;20116;-64
2022/03/29 09:43:01;;;;;;;33.75;13.73;;;;;;;;;;5083306;28;20048;-66
2022/03/29 09:45:48;;;;;;;37.45;13.32;;;;;;;;;;5075858;28;20436;-66
2022/03/29 09:48:24;;;;;;;38.70;14.80;;;;;;;;;;5084798;28;20087;-63
2022/03/29 09:50:54;;;;;;;31.35;13.00;;;;;;;;;;5085956;28;20136;-69
2022/03/29 09:53:39;;;;;;;30.40;13.65;;;;;;;;;;5081526;28;20048;-66
2022/03/29 09:56:06;;;;;;;38.85;14.18;;;;;;;;;;5082581;28;20040;-66
2022/03/29 09:58:32;;;;;;;31.90;13.35;;;;;;;;;;5076609;28;20117;-67
2022/03/29 10:00:58;;;;;;;35.08;13.95;;;;;;;;;;5075763;28;20207;-65
2022/03/29 10:03:26;;;;;;;33.22;13.10;;;;;;;;;;5084360;28;20408;-64
2022/03/29 10:06:01;;;;;;;33.63;12.27;;;;;;;;;;5085873;28;20396;-67
2022/03/29 10:11:15;;;;;;;38.53;13.18;;;;;;;;;;5088242;28;20155;-65
2022/03/29 10:13:46;;;;;;;34.35;13.07;;;;;;;;;;5086281;28;20113;-67
2022/03/29 10:16:16;;;;;;;36.20;12.57;;;;;;;;;;5102450;27;20051;-67
2022/03/29 10:18:43;;;;;;;33.58;16.13;;;;;;;;;;5084590;28;20090;-66
2022/03/29 10:21:13;;;;;;;32.50;12.20;;;;;;;;;;5085313;28;20445;-66
2022/03/29 10:23:46;;;;;;;33.28;12.75;;;;;;;;;;5086635;28;20102;-67
2022/03/29 10:26:21;;;;;;;44.97;12.52;;;;;;;;;;5085201;28;20054;-66
2022/03/29 10:28:47;;;;;;;34.50;12.20;;;;;;;;;;5085545;28;20105;-65
2022/03/29 10:31:28;;;;;;;32.67;12.13;;;;;;;;;;5084830;28;20115;-65
2022/03/29 10:34:13;;;;;;;30.50;11.60;;;;;;;;;;5080959;28;20229;-70
2022/03/29 10:37:01;;;;;;;39.67;12.75;;;;;;;;;;5065926;28;20408;-66
2022/03/29 10:39:46;;;;;;;33.30;11.75;;;;;;;;;;5080212;28;20101;-65
2022/03/29 10:42:30;;;;;;;32.45;12.15;;;;;;;;;;5069258;28;20096;-65
2022/03/29 10:44:59;;;;;;;30.35;10.48;;;;;;;;;;5065847;28;20049;-68
2022/03/29 10:47:46;;;;;;;35.60;11.38;;;;;;;;;;5077008;28;20503;-65
2022/03/29 10:50:13;;;;;;;32.10;11.13;;;;;;;;;;5081765;28;20052;-67
2022/03/29 10:52:43;;;;;;;28.75;9.73;;;;;;;;;;5069836;28;20416;-66
2022/03/29 10:55:20;;;;;;;33.33;11.02;;;;;;;;;;5087174;28;20458;-69
2022/03/29 10:58:03;;;;;;;29.23;10.73;;;;;;;;;;5086230;28;20044;-68
2022/03/29 11:00:33;;;;;;;33.10;10.25;;;;;;;;;;5082303;28;20084;-68
2022/03/29 11:03:16;;;;;;;31.35;11.05;;;;;;;;;;5070833;28;20075;-69
2022/03/29 11:06:01;;;;;;;36.45;10.77;;;;;;;;;;5068080;28;20048;-71
2022/03/29 11:08:30;;;;;;;30.77;10.90;;;;;;;;;;5070598;28;20051;-66
2022/03/29 11:10:58;;;;;;;32.58;10.57;;;;;;;;;;5075407;28;20062;-67
2022/03/29 11:13:34;;;;;;;28.85;10.23;;;;;;;;;;5084125;28;20345;-67
2022/03/29 11:16:02;;;;;;;31.10;10.15;;;;;;;;;;5085742;28;20071;-71
2022/03/29 11:18:31;;;;;;;31.05;9.98;;;;;;;;;;5080901;28;20145;-68
2022/03/29 11:21:02;;;;;;;29.77;10.63;;;;;;;;;;5083066;28;20378;-68
2022/03/29 11:23:42;;;;;;;28.23;9.18;;;;;;;;;;5085912;28;20335;-67
2022/03/29 11:26:12;;;;;;;26.80;10.18;;;;;;;;;;5083555;28;20547;-68
2022/03/29 11:28:46;;;;;;;31.15;10.55;;;;;;;;;;5083043;28;20050;-68
2022/03/29 11:31:14;;;;;;;30.25;9.80;;;;;;;;;;5066040;28;20535;-69
2022/03/29 11:33:40;;;;;;;29.73;10.50;;;;;;;;;;5086283;28;20079;-70
2022/03/29 11:36:07;;;;;;;;;;;;;;;;;;5078316;28;20122;-70
2022/03/29 11:38:36;;;;;;;30.23;10.38;;;;;;;;;;5086129;28;20011;-66
2022/03/29 11:41:03;;;;;;;34.95;10.70;;;;;;;;;;5087148;28;20059;-71
2022/03/29 11:43:29;;;;;;;29.17;10.65;;;;;;;;;;5085986;28;20040;-69
2022/03/29 11:45:59;;;;;;;27.38;10.68;;;;;;;;;;5084891;28;20487;-70
2022/03/29 11:48:26;;;;;;;30.20;10.88;;;;;;;;;;5082273;28;20040;-69
2022/03/29 11:50:56;;;;;;;30.38;10.50;;;;;;;;;;5081417;28;20063;-69
2022/03/29 11:53:24;;;;;;;26.58;10.70;;;;;;;;;;5082982;28;20100;-68
2022/03/29 11:56:07;;;;;;;27.10;9.55;;;;;;;;;;5075533;28;20110;-68
2022/03/29 11:58:43;;;;;;;31.95;10.73;;;;;;;;;;5062201;28;20441;-70
2022/03/29 12:01:10;;;;;;;27.70;10.65;;;;;;;;;;5083141;28;20128;-69
2022/03/29 12:03:44;;;;;;;33.20;10.63;;;;;;;;;;5080763;28;20060;-68
2022/03/29 12:06:20;;;;;;;36.17;10.98;;;;;;;;;;5085925;28;20048;-70
2022/03/29 12:08:46;;;;;;;32.47;11.20;;;;;;;;;;5075280;28;20059;-68
2022/03/29 12:11:12;;;;;;;32.08;10.75;;;;;;;;;;5069433;28;20147;-69
2022/03/29 12:13:38;;;;;;;;;;;;;;;;;;5075055;28;20147;-70
2022/03/29 12:16:24;;;;;;;28.40;9.40;;;;;;;;;;5083152;28;20018;-68
2022/03/29 12:18:50;;;;;;;29.25;10.85;;;;;;;;;;5087372;28;20040;-68
2022/03/29 12:21:18;;;;;;;29.92;10.02;;;;;;;;;;5082630;28;20072;-65
2022/03/29 12:23:44;;;;;;;31.60;10.95;;;;;;;;;;5087927;28;20074;-69
2022/03/29 12:26:11;;;;;;;28.02;10.30;;;;;;;;;;5086667;28;20060;-68
2022/03/29 12:28:38;;;;;;;29.95;11.60;;;;;;;;;;5088281;28;20124;-67
2022/03/29 12:31:08;;;;;;;33.92;11.27;;;;;;;;;;5085032;28;20048;-69
2022/03/29 12:33:35;;;;;;;30.98;11.07;;;;;;;;;;5086421;28;20059;-64
2022/03/29 12:36:11;;;;;;;29.67;11.88;;;;;;;;;;5089059;28;20143;-68
2022/03/29 12:39:05;;;;;;;30.88;11.20;;;;;;;;;;5090883;28;20079;-68
2022/03/29 12:41:42;;;;;;;32.08;12.77;;;;;;;;;;5077157;28;20107;-67
2022/03/29 12:44:12;;;;;;;35.80;13.38;;;;;;;;;;5080195;28;20056;-67
2022/03/29 12:46:40;;;;;;;29.38;11.40;;;;;;;;;;5087042;28;20048;-67
2022/03/29 12:49:07;;;;;;;28.95;12.30;;;;;;;;;;5084766;28;20127;-68
2022/03/29 12:51:37;;;;;;;28.00;11.88;;;;;;;;;;5077865;28;20066;-65
2022/03/29 12:54:08;;;;;;;28.25;11.98;;;;;;;;;;5082113;28;20071;-67
2022/03/29 12:56:34;;;;;;;31.02;11.80;;;;;;;;;;5089144;28;20044;-68
2022/03/29 12:59:00;;;;;;;30.55;12.43;;;;;;;;;;5088142;28;20079;-68
2022/03/29 13:01:29;;;;;;;32.38;13.15;;;;;;;;;;5080097;28;20425;-69
2022/03/29 13:04:05;;;;;;;33.05;14.38;;;;;;;;;;5078840;28;20040;-69
2022/03/29 13:06:41;;;;;;;33.87;13.57;;;;;;;;;;5077295;28;20617;-69
2022/03/29 13:09:07;;;;;;;30.90;13.38;;;;;;;;;;5076588;28;20381;-67
2022/03/29 13:11:34;;;;;;;31.05;11.90;;;;;;;;;;5086021;28;20047;-69
2022/03/29 13:14:04;;;;;;;32.25;13.43;;;;;;;;;;5088190;28;20048;-66
2022/03/29 13:16:30;;;;;;;33.97;12.48;;;;;;;;;;5075760;28;20043;-65
2022/03/29 13:18:56;;;;;;;36.17;14.30;;;;;;;;;;5088691;28;20067;-68
2022/03/29 13:21:30;;;;;;;35.92;14.20;;;;;;;;;;5088349;28;20073;-69
2022/03/29 13:24:02;;;;;;;32.80;13.27;;;;;;;;;;5085530;28;20123;-69
2022/03/29 13:26:29;;;;;;;36.65;12.88;;;;;;;;;;5086387;28;20044;-69
2022/03/29 13:28:55;;;;;;;33.17;13.90;;;;;;;;;;5089138;28;20040;-68
2022/03/29 13:31:29;;;;;;;35.78;13.98;;;;;;;;;;5087389;28;20059;-69
2022/03/29 13:33:56;;;;;;;32.88;14.73;;;;;;;;;;5089409;28;20067;-69
2022/03/29 13:36:23;;;;;;;33.42;13.18;;;;;;;;;;5088977;28;20177;-68
2022/03/29 13:38:50;;;;;;;32.50;13.98;;;;;;;;;;5087707;28;20485;-67
2022/03/29 13:41:18;;;;;;;32.10;14.30;;;;;;;;;;5089246;28;20064;-69
2022/03/29 13:43:44;;;;;;;30.17;12.75;;;;;;;;;;5089039;28;20105;-67
2022/03/29 13:46:10;;;;;;;;;;;;;;;;;;5089651;28;20109;-66
2022/03/29 13:48:37;;;;;;;32.42;13.90;;;;;;;;;;5088662;28;20393;-66
2022/03/29 13:51:03;;;;;;;;;;;;;;;;;;5089604;28;20071;-65
2022/03/29 13:53:29;;;;;;;39.65;13.32;;;;;;;;;;5087078;28;19920;-66
2022/03/29 13:55:55;;;;;;;31.45;12.57;;;;;;;;;;5088502;28;20132;-67
2022/03/29 13:58:21;;;;;;;32.42;13.20;;;;;;;;;;5086976;28;20067;-67
2022/03/29 14:00:48;;;;;;;36.85;14.32;;;;;;;;;;5089076;28;20345;-65
2022/03/29 14:03:14;;;;;;;;;;;;;;;;;;5070986;28;20051;-63
2022/03/29 14:05:40;;;;;;;36.83;14.85;;;;;;;;;;5088089;28;19930;-66
2022/03/29 14:08:07;;;;;;;32.92;14.02;;;;;;;;;;5088521;28;20075;-67
2022/03/29 14:10:34;;;;;;;28.95;12.10;;;;;;;;;;5088485;28;20058;-65
2022/03/29 14:13:02;;;;;;;28.13;12.50;;;;;;;;;;5088829;28;20054;-62
2022/03/29 14:15:28;;;;;;;30.63;13.65;;;;;;;;;;5088244;28;20043;-65
2022/03/29 14:17:55;;;;;;;30.95;13.60;;;;;;;;;;5088626;28;20084;-65
2022/03/29 14:20:21;;;;;;;34.10;14.63;;;;;;;;;;5088107;28;20048;-67
2022/03/29 14:22:48;;;;;;;31.13;14.88;;;;;;;;;;5088694;28;20059;-63
2022/03/29 14:25:16;;;;;;;48.30;14.10;;;;;;;;;;5088188;28;20055;-64
2022/03/29 14:27:42;;;;;;;28.35;13.10;;;;;;;;;;5088184;28;20052;-65
2022/03/29 14:30:09;;;;;;;29.55;10.80;;;;;;;;;;5088500;28;20040;-62
2022/03/29 14:32:35;;;;;;;29.30;13.38;;;;;;;;;;5088149;28;20131;-64
2022/03/29 14:35:05;;;;;;;30.42;12.93;;;;;;;;;;5087827;28;20118;-65
2022/03/29 14:37:37;;;;;;;31.10;12.50;;;;;;;;;;5086825;28;20079;-65
2022/03/29 14:40:05;;;;;;;31.73;13.77;;;;;;;;;;5088714;28;20408;-66